Time;durP1;ratioP1;P1;durP2;ratioP2;P2;SDS_P1;SDS_P2;PMS_P1;PMS_P2;Temp;Humidity;BMP_temperature;BMP_pressure;BME280_temperature;BME280_humidity;BME280_pressure;Samples;Min_cycle;Max_cycle;Signal;HPM_P1;HPM_P2
2022/03/19 00:00:09;;;;;;;1.70;1.60;;;10.80;91.60;;;;;;5071627;28;20445;-47
2022/03/19 00:02:43;;;;;;;2.70;1.07;;;10.80;91.60;;;;;;5069413;28;20476;-48
2022/03/19 00:05:11;;;;;;;2.63;1.03;;;10.80;91.60;;;;;;5071056;28;20433;-48
2022/03/19 00:07:41;;;;;;;1.27;1.07;;;10.80;91.70;;;;;;5069285;28;20499;-49
2022/03/19 00:10:10;;;;;;;1.50;1.10;;;10.80;91.70;;;;;;5071035;28;20461;-51
2022/03/19 00:12:39;;;;;;;1.93;1.30;;;10.80;92.20;;;;;;5070688;28;20738;-48
2022/03/19 00:15:11;;;;;;;1.50;1.40;;;10.80;91.70;;;;;;5069573;28;20430;-47
2022/03/19 00:17:39;;;;;;;0.90;0.90;;;10.80;91.70;;;;;;5070810;28;20458;-48
2022/03/19 00:20:08;;;;;;;1.63;1.17;;;10.80;91.80;;;;;;5064961;28;21006;-48
2022/03/19 00:22:38;;;;;;;2.83;1.00;;;10.80;91.70;;;;;;5063466;28;20504;-48
2022/03/19 00:25:08;;;;;;;1.70;1.30;;;10.80;91.70;;;;;;5070497;28;20430;-48
2022/03/19 00:27:36;;;;;;;1.60;1.10;;;10.80;91.70;;;;;;5070538;28;20484;-49
2022/03/19 00:30:05;;;;;;;1.40;1.07;;;10.80;91.70;;;;;;5070593;28;20441;-48
2022/03/19 00:32:36;;;;;;;1.60;1.13;;;10.80;91.70;;;;;;5068501;28;20545;-49
2022/03/19 00:35:05;;;;;;;1.67;1.33;;;10.80;91.70;;;;;;5070298;28;20470;-48
2022/03/19 00:37:41;;;;;;;4.27;1.37;;;10.80;91.70;;;;;;5069375;28;20469;-49
2022/03/19 00:40:11;;;;;;;1.30;1.20;;;10.80;91.70;;;;;;5070234;28;20499;-48
2022/03/19 00:42:39;;;;;;;3.13;1.23;;;10.80;91.70;;;;;;5069770;28;21007;-47
2022/03/19 00:45:09;;;;;;;1.37;1.10;;;10.80;91.80;;;;;;5069858;28;20472;-48
2022/03/19 00:47:38;;;;;;;1.20;1.10;;;10.80;91.80;;;;;;5068933;28;20474;-47
2022/03/19 00:50:08;;;;;;;1.00;1.00;;;10.80;91.90;;;;;;5070596;28;20438;-47
2022/03/19 00:52:37;;;;;;;1.33;1.23;;;10.80;91.90;;;;;;5066881;28;20523;-47
2022/03/19 00:55:06;;;;;;;1.10;1.00;;;10.70;91.80;;;;;;5070269;28;20419;-48
2022/03/19 00:57:41;;;;;;;1.00;0.90;;;10.70;91.80;;;;;;5053189;28;20458;-47
2022/03/19 01:00:11;;;;;;;1.60;1.13;;;10.70;91.90;;;;;;5056706;28;20449;-50
2022/03/19 01:02:42;;;;;;;1.80;1.00;;;10.70;91.80;;;;;;5053186;28;20459;-49
2022/03/19 01:05:11;;;;;;;1.80;1.43;;;10.70;91.80;;;;;;5050301;28;20419;-47
2022/03/19 01:07:44;;;;;;;2.13;1.10;;;10.70;91.90;;;;;;5063104;28;20520;-47
2022/03/19 01:10:14;;;;;;;1.83;1.10;;;10.70;91.80;;;;;;5034904;28;20930;-48
2022/03/19 01:12:42;;;;;;;1.60;1.03;;;10.70;91.90;;;;;;5049881;28;20493;-49
2022/03/19 01:15:11;;;;;;;1.20;1.10;;;10.70;91.90;;;;;;5064584;28;20936;-49
2022/03/19 01:17:40;;;;;;;1.40;1.30;;;10.70;91.90;;;;;;5069807;28;20512;-47
2022/03/19 01:20:10;;;;;;;0.80;0.80;;;10.70;91.90;;;;;;5070098;28;20787;-49
2022/03/19 01:22:39;;;;;;;4.13;1.10;;;10.70;91.90;;;;;;5068578;28;20462;-49
2022/03/19 01:25:09;;;;;;;1.47;1.20;;;10.70;91.90;;;;;;5054536;28;20989;-47
2022/03/19 01:27:39;;;;;;;1.50;1.07;;;10.70;91.90;;;;;;5049297;28;20467;-48
2022/03/19 01:30:08;;;;;;;1.23;1.10;;;10.70;91.90;;;;;;5056672;28;20963;-47
2022/03/19 01:32:37;;;;;;;1.40;1.10;;;10.70;92.10;;;;;;5062651;28;20986;-49
2022/03/19 01:35:07;;;;;;;0.90;0.90;;;10.70;92.00;;;;;;5049717;28;20838;-49
2022/03/19 01:37:35;;;;;;;2.00;1.10;;;10.70;92.10;;;;;;5056349;28;20853;-49
2022/03/19 01:40:05;;;;;;;1.33;0.90;;;10.70;92.00;;;;;;5050543;28;20459;-47
2022/03/19 01:42:37;;;;;;;2.60;1.40;;;10.70;92.00;;;;;;5049294;28;21013;-47
2022/03/19 01:45:09;;;;;;;2.83;1.60;;;10.70;92.50;;;;;;5051723;28;20419;-49
2022/03/19 01:47:37;;;;;;;2.00;1.10;;;10.70;92.10;;;;;;5069578;28;20492;-49
2022/03/19 01:50:09;;;;;;;1.00;0.80;;;10.70;92.10;;;;;;5074195;28;20429;-49
2022/03/19 01:52:37;;;;;;;1.23;1.13;;;10.70;92.20;;;;;;5072198;28;20465;-49
2022/03/19 01:55:07;;;;;;;3.77;1.27;;;10.70;92.10;;;;;;5062792;28;20439;-49
2022/03/19 01:57:38;;;;;;;1.60;1.40;;;10.60;92.10;;;;;;5053383;28;20467;-50
2022/03/19 02:00:09;;;;;;;0.97;0.70;;;10.60;92.20;;;;;;5060726;28;20967;-48
2022/03/19 02:02:40;;;;;;;1.73;1.33;;;10.60;92.20;;;;;;5073078;28;20466;-48
2022/03/19 02:05:14;;;;;;;1.00;0.70;;;10.60;92.20;;;;;;5056115;28;20995;-47
2022/03/19 02:07:42;;;;;;;1.80;0.90;;;10.60;92.20;;;;;;5057658;28;20467;-47
2022/03/19 02:10:12;;;;;;;2.07;1.40;;;10.60;92.20;;;;;;5053765;28;20855;-48
2022/03/19 02:12:40;;;;;;;1.47;1.00;;;10.60;92.30;;;;;;5059755;28;20980;-49
2022/03/19 02:15:10;;;;;;;1.10;1.00;;;10.60;92.70;;;;;;5072545;28;20533;-49
2022/03/19 02:17:40;;;;;;;1.50;1.40;;;10.60;92.30;;;;;;5065850;28;20509;-50
2022/03/19 02:20:09;;;;;;;1.23;0.63;;;10.60;92.20;;;;;;5053775;28;20419;-49
2022/03/19 02:22:39;;;;;;;1.87;1.43;;;10.60;92.40;;;;;;5065530;28;20531;-47
2022/03/19 02:27:57;;;;;;;1.10;1.00;;;10.60;92.40;;;;;;5072429;28;20476;-45
2022/03/19 02:30:25;;;;;;;1.20;1.10;;;10.60;92.40;;;;;;5067507;28;20534;-47
2022/03/19 02:32:53;;;;;;;1.27;1.10;;;10.60;92.30;;;;;;5052807;28;20536;-48
2022/03/19 02:35:21;;;;;;;1.10;1.00;;;10.60;92.40;;;;;;5052387;28;20457;-48
2022/03/19 02:37:51;;;;;;;1.27;1.00;;;10.60;92.50;;;;;;5054645;28;20467;-46
2022/03/19 02:40:22;;;;;;;1.20;1.00;;;10.60;92.50;;;;;;5053639;28;20787;-49
2022/03/19 02:42:51;;;;;;;1.10;1.00;;;10.60;92.50;;;;;;5034142;28;20467;-48
2022/03/19 02:45:20;;;;;;;2.00;1.30;;;10.60;92.50;;;;;;5065720;28;20477;-49
2022/03/19 02:48:00;;;;;;;2.03;1.00;;;10.60;92.50;;;;;;5060881;28;21046;-46
2022/03/19 02:50:31;;;;;;;1.33;1.23;;;10.60;92.50;;;;;;5054696;28;20465;-49
2022/03/19 02:53:01;;;;;;;1.43;0.93;;;10.60;92.50;;;;;;5070903;28;20473;-47
2022/03/19 02:55:36;;;;;;;2.17;1.10;;;10.60;92.60;;;;;;5071038;28;20426;-49
2022/03/19 02:58:05;;;;;;;2.13;1.30;;;10.50;92.60;;;;;;5072153;28;20470;-48
2022/03/19 03:00:34;;;;;;;1.07;0.80;;;10.50;92.60;;;;;;5066391;28;20466;-48
2022/03/19 03:03:04;;;;;;;0.90;0.70;;;10.50;92.60;;;;;;5033920;28;20483;-47
2022/03/19 03:05:33;;;;;;;0.90;0.70;;;10.50;92.60;;;;;;5052091;28;21061;-46
2022/03/19 03:08:02;;;;;;;1.57;1.10;;;10.50;92.60;;;;;;5068252;28;20511;-47
2022/03/19 03:10:31;;;;;;;1.30;1.00;;;10.50;92.60;;;;;;5056162;28;20458;-48
2022/03/19 03:13:01;;;;;;;1.37;0.70;;;10.50;92.70;;;;;;5051133;28;21019;-46
2022/03/19 03:15:29;;;;;;;1.50;1.10;;;10.50;92.70;;;;;;5059021;28;20469;-50
2022/03/19 03:17:57;;;;;;;4.53;0.90;;;10.50;92.70;;;;;;5051415;28;21062;-50
2022/03/19 03:20:25;;;;;;;1.50;1.30;;;10.50;92.70;;;;;;5052629;28;20847;-49
2022/03/19 03:22:53;;;;;;;1.40;1.00;;;10.50;92.70;;;;;;5066011;28;20508;-47
2022/03/19 03:25:22;;;;;;;0.90;0.83;;;10.50;92.70;;;;;;5071694;28;20422;-49
2022/03/19 03:27:51;;;;;;;1.93;0.97;;;10.50;92.70;;;;;;5071442;28;20477;-46
2022/03/19 03:30:21;;;;;;;1.57;1.20;;;10.50;92.70;;;;;;5071495;28;20487;-50
2022/03/19 03:32:49;;;;;;;1.53;0.90;;;10.50;92.80;;;;;;5056072;28;21004;-50
2022/03/19 03:35:18;;;;;;;1.10;1.00;;;10.50;92.80;;;;;;5071077;28;20434;-47
2022/03/19 03:37:46;;;;;;;1.47;1.37;;;10.50;92.80;;;;;;5052613;28;20961;-49
2022/03/19 03:40:14;;;;;;;1.80;1.47;;;10.50;92.80;;;;;;5070302;28;20797;-48
2022/03/19 03:42:42;;;;;;;1.13;0.93;;;10.50;92.80;;;;;;5050936;28;21052;-49
2022/03/19 03:45:10;;;;;;;1.87;1.20;;;10.50;92.80;;;;;;5058188;28;20469;-49
2022/03/19 03:47:40;;;;;;;1.73;0.87;;;10.40;92.80;;;;;;5071250;28;20465;-48
2022/03/19 03:50:09;;;;;;;1.77;1.17;;;10.40;92.80;;;;;;5055300;28;20922;-49
2022/03/19 03:52:38;;;;;;;1.30;1.00;;;10.40;92.80;;;;;;5063880;28;20970;-49
2022/03/19 03:55:07;;;;;;;0.87;0.80;;;10.40;92.80;;;;;;5071242;28;20968;-49
2022/03/19 03:57:36;;;;;;;1.87;1.20;;;10.40;92.80;;;;;;5071395;28;20553;-48
2022/03/19 04:00:08;;;;;;;1.57;0.80;;;10.40;92.80;;;;;;5070616;28;20481;-50
2022/03/19 04:02:41;;;;;;;1.83;1.47;;;10.40;92.90;;;;;;5051564;28;20462;-50
2022/03/19 04:05:10;;;;;;;1.30;1.03;;;10.40;92.90;;;;;;5070861;28;20415;-48
2022/03/19 04:07:38;;;;;;;0.90;0.77;;;10.40;92.80;;;;;;5064135;28;20478;-48
2022/03/19 04:10:07;;;;;;;1.13;0.80;;;10.40;92.90;;;;;;5071342;28;20430;-49
2022/03/19 04:12:36;;;;;;;1.07;0.97;;;10.40;92.90;;;;;;5061150;28;20562;-48
2022/03/19 04:15:05;;;;;;;0.70;0.70;;;10.40;92.90;;;;;;5061572;28;20553;-49
2022/03/19 04:17:33;;;;;;;1.90;1.30;;;10.40;92.90;;;;;;5049821;28;20930;-49
2022/03/19 04:20:04;;;;;;;1.10;0.97;;;10.40;92.90;;;;;;5051777;28;20427;-47
2022/03/19 04:22:37;;;;;;;1.10;1.00;;;10.40;92.90;;;;;;5066337;28;21015;-49
2022/03/19 04:25:09;;;;;;;1.40;1.00;;;10.40;92.90;;;;;;5071677;28;20441;-49
2022/03/19 04:27:37;;;;;;;2.83;0.97;;;10.40;92.90;;;;;;5070273;28;20825;-48
2022/03/19 04:30:07;;;;;;;1.37;1.10;;;10.40;92.90;;;;;;5066006;28;20438;-47
2022/03/19 04:32:40;;;;;;;1.87;1.20;;;10.40;93.00;;;;;;5070202;28;20549;-48
2022/03/19 04:37:52;;;;;;;1.50;1.23;;;10.40;93.00;;;;;;5068878;28;20478;-48
2022/03/19 04:40:21;;;;;;;1.10;1.00;;;10.30;93.00;;;;;;5054618;28;20526;-48
2022/03/19 04:42:49;;;;;;;1.63;1.23;;;10.40;93.00;;;;;;5050276;28;20474;-48
2022/03/19 04:45:18;;;;;;;2.33;1.20;;;10.30;93.00;;;;;;5056554;28;20442;-49
2022/03/19 04:47:47;;;;;;;1.23;1.00;;;10.30;93.00;;;;;;5065364;28;20490;-48
2022/03/19 04:50:16;;;;;;;3.10;1.30;;;10.30;93.00;;;;;;5050268;28;20481;-48
2022/03/19 04:52:45;;;;;;;1.87;1.40;;;10.30;93.00;;;;;;5057741;28;20521;-47
2022/03/19 04:55:14;;;;;;;1.30;0.83;;;10.30;93.00;;;;;;5051488;28;20520;-49
2022/03/19 04:57:42;;;;;;;1.43;1.07;;;10.30;93.00;;;;;;5049585;28;20455;-49
2022/03/19 05:00:13;;;;;;;1.50;1.20;;;10.30;93.00;;;;;;5061141;28;20514;-47
2022/03/19 05:02:42;;;;;;;1.70;0.97;;;10.30;93.00;;;;;;5069657;28;21012;-47
2022/03/19 05:05:10;;;;;;;2.43;1.50;;;10.30;93.00;;;;;;5070338;28;20430;-48
2022/03/19 05:07:40;;;;;;;2.53;1.10;;;10.30;93.00;;;;;;5060207;28;20478;-49
2022/03/19 05:12:56;;;;;;;1.30;1.20;;;10.30;93.00;;;;;;5067401;28;20461;-49
2022/03/19 05:15:27;;;;;;;1.40;1.27;;;10.30;93.00;;;;;;5069529;28;20472;-48
2022/03/19 05:17:55;;;;;;;1.70;1.50;;;10.30;93.10;;;;;;5069528;28;20454;-48
2022/03/19 05:20:23;;;;;;;2.60;1.53;;;10.20;93.10;;;;;;5073265;28;20457;-47
2022/03/19 05:22:53;;;;;;;3.80;1.40;;;10.20;93.00;;;;;;5057913;28;20458;-45
2022/03/19 05:25:21;;;;;;;1.90;1.50;;;10.20;93.10;;;;;;5054198;28;20423;-48
2022/03/19 05:27:51;;;;;;;1.87;1.30;;;10.20;93.00;;;;;;5053882;28;20455;-49
2022/03/19 05:30:21;;;;;;;1.90;1.30;;;10.20;93.10;;;;;;5069169;28;20461;-49
2022/03/19 05:32:50;;;;;;;1.80;1.30;;;10.20;93.10;;;;;;5073022;28;20465;-47
2022/03/19 05:35:19;;;;;;;1.30;1.20;;;10.20;93.10;;;;;;5053547;28;20521;-50
2022/03/19 05:37:48;;;;;;;2.13;1.40;;;10.20;93.10;;;;;;5056130;28;20467;-48
2022/03/19 05:40:18;;;;;;;1.27;1.17;;;10.20;93.00;;;;;;5053821;28;20443;-48
2022/03/19 05:42:46;;;;;;;2.50;1.37;;;10.20;93.00;;;;;;5053724;28;20553;-46
2022/03/19 05:45:15;;;;;;;1.37;1.27;;;10.20;93.10;;;;;;5060713;28;20453;-49
2022/03/19 05:47:44;;;;;;;1.70;1.40;;;10.20;93.10;;;;;;5059560;28;20459;-49
2022/03/19 05:50:14;;;;;;;1.67;1.20;;;10.20;93.10;;;;;;5055610;28;20431;-47
2022/03/19 05:52:45;;;;;;;1.93;1.43;;;10.20;93.10;;;;;;5072787;28;20466;-48
2022/03/19 05:55:14;;;;;;;1.20;0.90;;;10.20;93.00;;;;;;5073300;28;20458;-49
2022/03/19 05:57:43;;;;;;;1.30;1.00;;;10.10;93.00;;;;;;5060611;28;20465;-48
2022/03/19 06:00:12;;;;;;;2.10;1.43;;;10.20;93.10;;;;;;5073685;28;20437;-48
2022/03/19 06:02:41;;;;;;;1.63;1.13;;;10.10;93.10;;;;;;5064853;28;20984;-48
2022/03/19 06:05:10;;;;;;;2.60;1.50;;;10.10;93.10;;;;;;5051927;28;20451;-47
2022/03/19 06:07:38;;;;;;;2.07;1.33;;;10.10;93.00;;;;;;5065450;28;20462;-48
2022/03/19 06:10:08;;;;;;;2.00;1.70;;;10.10;93.00;;;;;;5060585;28;20525;-48
2022/03/19 06:12:36;;;;;;;1.10;1.00;;;10.10;93.10;;;;;;5059330;28;20461;-48
2022/03/19 06:15:07;;;;;;;1.67;1.20;;;10.10;93.00;;;;;;5072166;28;20811;-48
2022/03/19 06:17:35;;;;;;;2.00;1.37;;;10.10;93.10;;;;;;5070689;28;20976;-50
2022/03/19 06:20:04;;;;;;;1.67;1.40;;;10.10;93.10;;;;;;5071951;28;20524;-49
2022/03/19 06:22:32;;;;;;;2.50;1.50;;;10.10;93.10;;;;;;5068447;28;20460;-48
2022/03/19 06:25:00;;;;;;;1.80;1.13;;;10.10;93.10;;;;;;5052630;28;20526;-47
2022/03/19 06:27:30;;;;;;;1.53;1.43;;;10.10;93.10;;;;;;5052142;28;20545;-47
2022/03/19 06:29:59;;;;;;;2.50;1.10;;;10.10;93.10;;;;;;5051342;28;20930;-47
2022/03/19 06:32:28;;;;;;;3.50;1.10;;;10.10;93.10;;;;;;5056167;28;20458;-49
2022/03/19 06:34:57;;;;;;;2.57;1.70;;;10.10;93.10;;;;;;5058863;28;20468;-50
2022/03/19 06:37:28;;;;;;;1.70;1.30;;;10.10;93.00;;;;;;5070574;28;20458;-48
2022/03/19 06:40:06;;;;;;;1.90;1.40;;;10.10;93.10;;;;;;5052685;28;20443;-48
2022/03/19 06:42:34;;;;;;;1.90;1.60;;;10.10;93.10;;;;;;5052409;28;20982;-48
2022/03/19 06:45:03;;;;;;;1.50;1.30;;;10.10;93.10;;;;;;5059754;28;20529;-49
2022/03/19 06:47:32;;;;;;;2.70;1.70;;;10.10;93.10;;;;;;5052174;28;20455;-49
2022/03/19 06:50:03;;;;;;;2.57;1.60;;;10.10;93.50;;;;;;5061100;28;20441;-47
2022/03/19 06:52:34;;;;;;;1.37;1.27;;;10.10;93.00;;;;;;5048794;28;20838;-48
2022/03/19 06:55:03;;;;;;;1.73;1.60;;;10.00;93.00;;;;;;5062409;28;20467;-49
2022/03/19 06:57:31;;;;;;;2.40;1.60;;;10.10;93.10;;;;;;5056129;28;20470;-50
2022/03/19 07:00:00;;;;;;;1.60;1.10;;;10.10;93.10;;;;;;5062273;28;20821;-48
2022/03/19 07:02:28;;;;;;;1.20;1.10;;;10.10;93.10;;;;;;5072106;28;20493;-50
2022/03/19 07:04:58;;;;;;;1.30;1.20;;;10.10;93.10;;;;;;5061061;28;20525;-49
2022/03/19 07:07:27;;;;;;;1.70;1.60;;;10.10;93.10;;;;;;5061152;28;20592;-47
2022/03/19 07:09:55;;;;;;;1.50;1.30;;;10.10;93.10;;;;;;5052358;28;20427;-48
2022/03/19 07:12:23;;;;;;;2.10;1.47;;;10.10;93.10;;;;;;5051511;28;20458;-48
2022/03/19 07:14:51;;;;;;;1.27;1.10;;;10.10;93.10;;;;;;5064478;28;20450;-47
2022/03/19 07:17:20;;;;;;;1.23;1.03;;;10.10;93.10;;;;;;5064370;28;20451;-49
2022/03/19 07:19:48;;;;;;;2.10;1.33;;;10.10;93.10;;;;;;5052319;28;20516;-47
2022/03/19 07:22:17;;;;;;;1.60;1.50;;;10.10;93.10;;;;;;5061645;28;20540;-47
2022/03/19 07:24:45;;;;;;;1.40;1.10;;;10.10;93.00;;;;;;5068335;28;20466;-48
2022/03/19 07:27:14;;;;;;;1.40;1.30;;;10.10;93.00;;;;;;5051147;28;20451;-48
2022/03/19 07:29:42;;;;;;;1.03;0.93;;;10.10;93.00;;;;;;5055385;28;20453;-49
2022/03/19 07:32:11;;;;;;;1.60;1.10;;;10.10;93.00;;;;;;5053772;28;20469;-50
2022/03/19 07:34:39;;;;;;;1.63;1.30;;;10.10;93.00;;;;;;5065360;28;20514;-49
2022/03/19 07:37:08;;;;;;;1.83;1.73;;;10.10;93.00;;;;;;5060235;28;20868;-48
2022/03/19 07:39:37;;;;;;;1.50;1.07;;;10.10;92.90;;;;;;5052794;28;20948;-47
2022/03/19 07:42:05;;;;;;;1.10;1.00;;;10.10;92.90;;;;;;5050190;28;20478;-49
2022/03/19 07:44:34;;;;;;;1.07;0.97;;;10.10;92.90;;;;;;5051455;28;20427;-48
2022/03/19 07:47:02;;;;;;;2.10;1.20;;;10.10;92.90;;;;;;5061316;28;21008;-49
2022/03/19 07:49:30;;;;;;;1.03;0.83;;;10.10;92.90;;;;;;5071588;28;20917;-48
2022/03/19 07:51:58;;;;;;;1.47;1.23;;;10.10;92.90;;;;;;5069472;28;20445;-48
2022/03/19 07:54:27;;;;;;;1.30;1.10;;;10.10;92.90;;;;;;5070628;28;20533;-48
2022/03/19 07:56:57;;;;;;;1.30;0.80;;;10.10;92.90;;;;;;5069708;28;20829;-49
2022/03/19 07:59:28;;;;;;;1.47;1.20;;;10.10;93.00;;;;;;5058092;28;20845;-48
2022/03/19 08:01:57;;;;;;;1.93;1.10;;;10.10;92.90;;;;;;5064226;28;20439;-48
2022/03/19 08:04:25;;;;;;;1.90;1.13;;;10.10;92.90;;;;;;5069436;28;20820;-49
2022/03/19 08:06:55;;;;;;;1.30;1.20;;;10.10;92.90;;;;;;5067549;28;20975;-48
2022/03/19 08:09:28;;;;;;;1.30;1.20;;;10.10;92.90;;;;;;5055859;28;20514;-48
2022/03/19 08:11:59;;;;;;;1.47;1.17;;;10.20;92.70;;;;;;5064298;28;20435;-47
2022/03/19 08:14:29;;;;;;;1.57;1.47;;;10.20;92.70;;;;;;5049536;28;20435;-47
2022/03/19 08:16:57;;;;;;;1.50;1.40;;;10.20;92.70;;;;;;5066330;28;20470;-47
2022/03/19 08:19:28;;;;;;;1.97;1.30;;;10.20;92.70;;;;;;5070266;28;20976;-48
2022/03/19 08:21:56;;;;;;;1.40;1.00;;;10.20;92.70;;;;;;5067425;28;20446;-49
2022/03/19 08:24:25;;;;;;;1.20;0.93;;;10.20;92.70;;;;;;5049671;28;20439;-47
2022/03/19 08:26:54;;;;;;;1.70;1.00;;;10.20;92.70;;;;;;5049247;28;20446;-47
2022/03/19 08:29:25;;;;;;;2.27;1.90;;;10.20;92.70;;;;;;5058534;28;20554;-47
2022/03/19 08:31:54;;;;;;;2.17;1.80;;;10.20;92.50;;;;;;5058824;28;20437;-48
2022/03/19 08:34:22;;;;;;;1.70;1.60;;;10.20;92.50;;;;;;5069841;28;20452;-47
2022/03/19 08:36:52;;;;;;;2.80;1.60;;;10.20;92.50;;;;;;5063906;28;20470;-49
2022/03/19 08:42:06;;;;;;;2.17;1.67;;;10.20;92.50;;;;;;5062470;28;20466;-48
2022/03/19 08:44:36;;;;;;;2.37;1.43;;;10.20;92.60;;;;;;5067317;28;20438;-49
2022/03/19 08:47:05;;;;;;;3.30;1.63;;;10.20;92.50;;;;;;5048895;28;20498;-48
2022/03/19 08:49:33;;;;;;;2.27;1.70;;;10.20;92.60;;;;;;5014892;28;20431;-48
2022/03/19 08:52:02;;;;;;;2.70;1.60;;;10.20;92.60;;;;;;5057483;28;20489;-47
2022/03/19 08:54:30;;;;;;;2.70;1.97;;;10.20;92.60;;;;;;5065522;28;20956;-48
2022/03/19 08:56:59;;;;;;;3.10;2.10;;;10.20;92.60;;;;;;5066991;28;20461;-47
2022/03/19 08:59:27;;;;;;;4.10;1.57;;;10.20;92.60;;;;;;5022287;28;1070338;-47
2022/03/19 09:01:58;;;;;;;2.30;1.63;;;10.20;92.60;;;;;;5049628;28;20191;-49
2022/03/19 09:04:27;;;;;;;1.63;1.53;;;10.20;92.60;;;;;;5054787;28;20433;-50
2022/03/19 09:06:55;;;;;;;1.93;1.27;;;10.20;92.60;;;;;;5056778;28;20462;-49
2022/03/19 09:09:23;;;;;;;2.00;1.70;;;10.20;92.60;;;;;;5053396;28;20422;-47
2022/03/19 09:11:51;;;;;;;2.00;1.40;;;10.20;92.60;;;;;;5049151;28;20438;-48
2022/03/19 09:14:20;;;;;;;3.50;1.90;;;10.20;92.50;;;;;;5064565;28;20480;-47
2022/03/19 09:16:49;;;;;;;2.13;1.40;;;10.20;92.50;;;;;;5069306;28;20462;-49
2022/03/19 09:19:19;;;;;;;1.93;1.40;;;10.20;92.60;;;;;;5068131;28;20457;-49
2022/03/19 09:21:47;;;;;;;3.03;1.90;;;10.20;92.60;;;;;;5060963;28;20470;-48
2022/03/19 09:24:16;;;;;;;2.90;1.50;;;10.20;92.50;;;;;;5058254;28;20435;-50
2022/03/19 09:26:44;;;;;;;4.47;2.50;;;10.20;92.50;;;;;;5057974;28;20435;-49
2022/03/19 09:29:14;;;;;;;2.83;1.50;;;10.20;92.50;;;;;;5051260;28;20852;-48
2022/03/19 09:31:43;;;;;;;2.47;1.40;;;10.20;92.50;;;;;;5058032;28;20443;-47
2022/03/19 09:34:11;;;;;;;2.60;1.40;;;10.20;92.50;;;;;;5049563;28;21018;-48
2022/03/19 09:36:46;;;;;;;3.87;1.90;;;10.20;92.50;;;;;;5057112;28;20800;-47
2022/03/19 09:39:15;;;;;;;3.20;1.83;;;10.20;92.30;;;;;;5066224;28;20462;-48
2022/03/19 09:41:45;;;;;;;2.40;1.70;;;10.20;92.30;;;;;;5055729;28;20465;-49
2022/03/19 09:44:16;;;;;;;4.00;2.03;;;10.20;92.40;;;;;;5058926;28;20488;-50
2022/03/19 09:46:46;;;;;;;3.07;2.10;;;10.20;92.40;;;;;;5056885;28;20479;-49
2022/03/19 09:49:15;;;;;;;4.07;2.60;;;10.30;92.20;;;;;;5050989;28;20997;-48
2022/03/19 09:51:53;;;;;;;3.83;2.93;;;10.40;92.00;;;;;;5046306;28;20470;-47
2022/03/19 09:54:23;;;;;;;3.93;2.70;;;10.40;91.20;;;;;;5056079;28;20518;-46
2022/03/19 09:56:52;;;;;;;4.50;2.53;;;10.40;91.30;;;;;;5060144;28;20470;-49
2022/03/19 09:59:22;;;;;;;4.23;2.63;;;10.40;90.80;;;;;;5054266;28;20457;-50
2022/03/19 10:01:51;;;;;;;6.00;2.90;;;10.50;90.40;;;;;;5068416;28;20490;-49
2022/03/19 10:04:20;;;;;;;10.13;3.30;;;10.40;90.60;;;;;;5059360;28;21022;-50
2022/03/19 10:09:43;;;;;;;5.97;3.77;;;10.50;90.60;;;;;;5056663;28;20449;-47
2022/03/19 10:12:17;;;;;;;3.07;2.33;;;10.50;90.40;;;;;;5052530;28;20470;-50
2022/03/19 10:14:50;;;;;;;4.07;2.97;;;10.50;90.10;;;;;;5057205;28;20431;-50
2022/03/19 10:17:30;;;;;;;4.00;3.17;;;10.50;89.50;;;;;;5053250;28;20475;-50
2022/03/19 10:20:01;;;;;;;5.57;3.00;;;10.60;88.10;;;;;;5051586;28;20810;-48
2022/03/19 10:22:31;;;;;;;10.20;3.80;;;10.60;88.40;;;;;;5062674;28;20465;-49
2022/03/19 10:25:04;;;;;;;3.50;3.00;;;10.50;88.80;;;;;;5055291;28;20941;-48
2022/03/19 10:27:34;;;;;;;5.33;3.20;;;10.50;89.20;;;;;;5056486;28;20470;-49
2022/03/19 10:30:10;;;;;;;4.20;2.83;;;10.50;89.90;;;;;;5053300;28;20423;-49
2022/03/19 10:32:40;;;;;;;4.80;2.83;;;10.40;90.10;;;;;;5069206;28;20477;-48
2022/03/19 10:35:24;;;;;;;6.80;3.37;;;10.40;90.20;;;;;;5072616;28;20983;-50
2022/03/19 10:37:55;;;;;;;4.60;2.90;;;10.40;90.40;;;;;;5071127;28;20470;-48
2022/03/19 10:40:35;;;;;;;5.47;3.03;;;10.30;90.50;;;;;;5073534;28;20442;-50
2022/03/19 10:43:06;;;;;;;4.17;3.43;;;10.30;90.70;;;;;;5071703;28;20496;-49
2022/03/19 10:45:41;;;;;;;4.60;2.87;;;10.30;90.80;;;;;;5071532;28;20442;-49
2022/03/19 10:48:11;;;;;;;3.20;2.43;;;10.30;90.90;;;;;;5070322;28;20473;-46
2022/03/19 10:50:41;;;;;;;7.60;2.47;;;10.30;91.00;;;;;;5054677;28;20990;-50
2022/03/19 10:53:11;;;;;;;4.33;2.97;;;10.20;91.00;;;;;;5069830;28;20462;-47
2022/03/19 10:55:40;;;;;;;2.13;1.93;;;10.20;91.00;;;;;;5072076;28;20434;-47
2022/03/19 10:58:09;;;;;;;3.47;1.93;;;10.20;91.20;;;;;;5070221;28;20470;-50
2022/03/19 11:01:00;;;;;;;5.30;2.73;;;10.20;91.20;;;;;;5073083;28;20521;-46
2022/03/19 11:03:30;;;;;;;2.70;1.97;;;10.20;91.20;;;;;;5061739;28;20527;-49
2022/03/19 11:06:05;;;;;;;5.97;2.60;;;10.20;91.30;;;;;;5051369;28;20442;-47
2022/03/19 11:08:38;;;;;;;6.10;2.80;;;10.20;91.20;;;;;;5051865;28;20463;-48
2022/03/19 11:11:12;;;;;;;2.63;2.43;;;10.30;91.40;;;;;;5052773;28;20833;-47
2022/03/19 11:13:45;;;;;;;5.80;1.90;;;10.20;91.40;;;;;;5058663;28;21008;-47
2022/03/19 11:16:14;;;;;;;2.57;1.70;;;10.20;91.40;;;;;;5065902;28;20441;-46
2022/03/19 11:18:44;;;;;;;3.80;1.90;;;10.20;91.40;;;;;;5063543;28;20470;-47
2022/03/19 11:21:15;;;;;;;5.97;2.30;;;10.20;91.50;;;;;;5060654;28;20436;-47
2022/03/19 11:23:51;;;;;;;4.73;2.17;;;10.20;91.50;;;;;;5062866;28;20517;-48
2022/03/19 11:26:23;;;;;;;8.73;3.47;;;10.20;91.40;;;;;;5068626;28;20956;-46
2022/03/19 11:28:52;;;;;;;5.77;2.83;;;10.30;91.50;;;;;;5052928;28;21047;-47
2022/03/19 11:31:26;;;;;;;4.17;2.13;;;10.30;90.60;;;;;;5067690;28;20500;-49
2022/03/19 11:34:01;;;;;;;4.23;2.33;;;10.40;90.90;;;;;;5067421;28;20836;-47
2022/03/19 11:36:30;;;;;;;5.67;3.23;;;10.30;90.90;;;;;;5068498;28;20446;-45
2022/03/19 11:39:00;;;;;;;4.87;2.97;;;10.30;91.00;;;;;;5050079;28;20471;-47
2022/03/19 11:41:30;;;;;;;4.30;3.30;;;10.30;91.00;;;;;;5059705;28;20488;-50
2022/03/19 11:44:17;;;;;;;3.20;2.10;;;10.30;91.00;;;;;;5063646;28;20502;-48
2022/03/19 11:46:59;;;;;;;4.73;2.37;;;10.30;91.10;;;;;;5051071;28;20463;-49
2022/03/19 11:49:48;;;;;;;4.40;2.30;;;10.30;90.20;;;;;;5051878;28;20462;-47
2022/03/19 11:52:40;;;;;;;2.30;1.67;;;10.30;90.00;;;;;;5055885;28;20869;-47
2022/03/19 11:55:11;;;;;;;1.77;1.67;;;10.30;89.90;;;;;;5070401;28;20512;-49
2022/03/19 11:57:50;;;;;;;5.43;2.70;;;10.30;90.20;;;;;;5054739;28;20561;-49
2022/03/19 12:00:20;;;;;;;3.20;2.10;;;10.20;90.20;;;;;;5051022;28;20812;-48
2022/03/19 12:03:07;;;;;;;3.20;1.90;;;10.30;90.50;;;;;;5066073;28;20488;-47
2022/03/19 12:05:36;;;;;;;3.20;1.80;;;10.20;90.50;;;;;;5060098;28;20443;-47
2022/03/19 12:08:13;;;;;;;2.77;2.20;;;10.30;90.40;;;;;;5066343;28;20984;-49
2022/03/19 12:11:01;;;;;;;5.97;2.40;;;10.30;90.40;;;;;;5051229;28;20977;-47
2022/03/19 12:13:43;;;;;;;3.63;2.00;;;10.20;90.70;;;;;;5064362;28;20474;-48
2022/03/19 12:16:12;;;;;;;4.27;1.67;;;10.30;90.60;;;;;;5057514;28;20435;-47
2022/03/19 12:18:47;;;;;;;1.70;1.60;;;10.30;90.80;;;;;;5051316;28;21242;-47
2022/03/19 12:21:17;;;;;;;3.20;1.87;;;10.30;90.90;;;;;;5069668;28;20986;-47
2022/03/19 12:23:58;;;;;;;4.70;2.03;;;10.30;91.00;;;;;;5068222;28;20470;-49
2022/03/19 12:26:37;;;;;;;2.97;1.73;;;10.30;90.80;;;;;;5070666;28;20466;-48
2022/03/19 12:29:06;;;;;;;2.00;1.80;;;10.30;72.30;;;;;;5049902;28;20542;-49
2022/03/19 12:31:37;;;;;;;1.97;1.70;;;10.30;67.60;;;;;;5064825;28;20972;-47
2022/03/19 12:34:06;;;;;;;2.70;2.00;;;10.40;60.80;;;;;;5068935;28;20470;-48
2022/03/19 12:36:34;;;;;;;2.90;1.90;;;10.40;58.50;;;;;;5056101;28;20437;-47
2022/03/19 12:39:04;;;;;;;3.30;1.63;;;10.50;55.10;;;;;;5066273;28;20689;-48
2022/03/19 12:41:34;;;;;;;1.83;1.50;;;10.60;54.20;;;;;;5057399;28;20430;-49
2022/03/19 12:44:24;;;;;;;2.63;1.60;;;10.60;53.10;;;;;;5064839;28;20447;-47
2022/03/19 12:46:58;;;;;;;1.40;1.30;;;10.60;49.50;;;;;;5069692;28;20454;-49
2022/03/19 12:49:27;;;;;;;3.40;1.40;;;10.70;50.00;;;;;;5047691;28;20442;-47
2022/03/19 12:51:56;;;;;;;3.13;1.57;;;10.70;48.60;;;;;;5056768;28;21072;-47
2022/03/19 12:54:26;;;;;;;5.83;1.83;;;10.70;50.20;;;;;;5065510;28;20435;-47
2022/03/19 12:56:58;;;;;;;2.60;1.73;;;10.70;48.00;;;;;;5052424;28;20440;-49
2022/03/19 12:59:28;;;;;;;2.20;1.70;;;10.70;46.80;;;;;;5065930;28;20465;-50
2022/03/19 13:01:57;;;;;;;2.53;1.50;;;10.80;47.20;;;;;;5050509;28;20470;-46
2022/03/19 13:04:28;;;;;;;3.23;1.40;;;10.80;46.80;;;;;;5052041;28;20780;-48
2022/03/19 13:06:57;;;;;;;2.93;1.20;;;10.90;46.30;;;;;;5068405;28;20442;-47
2022/03/19 13:09:31;;;;;;;1.73;1.30;;;10.90;44.80;;;;;;5070266;28;20434;-47
2022/03/19 13:12:02;;;;;;;1.70;1.10;;;10.90;44.20;;;;;;5069610;28;20434;-49
2022/03/19 13:14:30;;;;;;;1.27;1.17;;;10.90;44.70;;;;;;5054108;28;20439;-48